Time;durP1;ratioP1;P1;durP2;ratioP2;P2;SDS_P1;SDS_P2;PMS_P1;PMS_P2;Temp;Humidity;BMP_temperature;BMP_pressure;BME280_temperature;BME280_humidity;BME280_pressure;Samples;Min_cycle;Max_cycle;Signal;HPM_P1;HPM_P2
2022/05/23 00:02:06;;;;;;;90.63;54.42;;;22.10;64.30;;;;;;4924811;28;91985;-41
2022/05/23 00:04:32;;;;;;;91.60;54.75;;;22.10;64.50;;;;;;4922356;28;90146;-37
2022/05/23 00:06:58;;;;;;;91.53;54.38;;;22.10;64.60;;;;;;4922415;28;89998;-38
2022/05/23 00:09:24;;;;;;;90.82;54.67;;;22.10;64.30;;;;;;4923568;28;95875;-38
2022/05/23 00:11:51;;;;;;;91.07;54.63;;;22.10;64.40;;;;;;4933360;28;89946;-37
2022/05/23 00:14:17;;;;;;;91.13;54.63;;;22.10;64.40;;;;;;4934945;28;89322;-36
2022/05/23 00:16:47;;;;;;;90.93;54.33;;;22.10;64.40;;;;;;4928140;28;89726;-41
2022/05/23 00:19:13;;;;;;;91.72;54.60;;;22.10;64.40;;;;;;4928098;28;91244;-38
2022/05/23 00:21:41;;;;;;;90.90;54.78;;;22.00;64.10;;;;;;4925895;28;89949;-38
2022/05/23 00:24:10;;;;;;;90.00;54.30;;;22.00;64.20;;;;;;4927022;28;89837;-37
2022/05/23 00:26:36;;;;;;;91.88;54.72;;;22.00;64.40;;;;;;4927462;28;90058;-37
2022/05/23 00:29:02;;;;;;;91.68;54.55;;;22.00;64.50;;;;;;4930559;28;90818;-36
2022/05/23 00:31:28;;;;;;;90.38;54.55;;;22.00;64.20;;;;;;4924703;28;95179;-38
2022/05/23 00:36:38;;;;;;;91.07;54.63;;;22.00;64.20;;;;;;4922194;28;90280;-38
2022/05/23 00:39:05;;;;;;;93.70;55.22;;;22.00;64.60;;;;;;4926051;28;90166;-37
2022/05/23 00:44:30;;;;;;;92.85;55.17;;;22.00;64.30;;;;;;4926171;28;92352;-37
2022/05/23 00:47:16;;;;;;;92.05;55.15;;;22.00;64.30;;;;;;4928695;28;89990;-36
2022/05/23 00:49:43;;;;;;;91.18;54.35;;;22.00;64.50;;;;;;4924304;28;89859;-36
2022/05/23 00:52:13;;;;;;;91.40;54.70;;;21.90;64.20;;;;;;4924728;28;90048;-38
2022/05/23 00:54:45;;;;;;;90.28;54.38;;;22.00;64.30;;;;;;4924364;28;89958;-37
2022/05/23 00:57:18;;;;;;;91.13;54.70;;;21.90;64.30;;;;;;4929472;28;90569;-38
2022/05/23 00:59:45;;;;;;;90.50;54.55;;;21.90;64.30;;;;;;4930351;28;91349;-37
2022/05/23 01:02:12;;;;;;;92.85;56.00;;;21.90;64.40;;;;;;4922137;28;91107;-38
2022/05/23 01:04:39;;;;;;;91.43;54.95;;;22.00;64.40;;;;;;4933118;28;89821;-36
2022/05/23 01:07:05;;;;;;;92.45;55.28;;;21.90;64.40;;;;;;4914622;28;90524;-37
2022/05/23 01:09:31;;;;;;;91.45;54.88;;;21.90;64.30;;;;;;4922878;28;92847;-36
2022/05/23 01:11:58;;;;;;;92.00;55.22;;;22.00;64.50;;;;;;4926082;28;90679;-38
2022/05/23 01:14:25;;;;;;;90.18;54.30;;;21.90;64.10;;;;;;4929265;28;90304;-38
2022/05/23 01:16:51;;;;;;;90.85;54.63;;;21.90;64.40;;;;;;4927275;28;89604;-37
2022/05/23 01:19:16;;;;;;;92.13;55.50;;;21.90;64.50;;;;;;4923197;28;91323;-37
2022/05/23 01:21:59;;;;;;;91.25;55.00;;;21.90;64.30;;;;;;4923758;28;90194;-37
2022/05/23 01:24:36;;;;;;;90.95;54.63;;;21.90;64.30;;;;;;4924115;28;90133;-38
2022/05/23 01:27:06;;;;;;;90.60;54.42;;;21.90;64.20;;;;;;4930661;28;89443;-38
2022/05/23 01:29:32;;;;;;;90.82;54.65;;;21.90;64.40;;;;;;4925543;28;95068;-38
2022/05/23 01:31:59;;;;;;;91.88;55.15;;;21.90;64.50;;;;;;4925923;28;90025;-39
2022/05/23 01:34:26;;;;;;;91.15;54.78;;;21.90;64.50;;;;;;4921380;28;91077;-38
2022/05/23 01:36:53;;;;;;;91.15;54.58;;;21.90;64.60;;;;;;4917990;28;89840;-36
2022/05/23 01:39:19;;;;;;;91.35;54.55;;;21.90;64.40;;;;;;4921775;28;92080;-35
2022/05/23 01:41:45;;;;;;;90.28;54.33;;;21.90;64.30;;;;;;4917422;28;89894;-37
2022/05/23 01:44:10;;;;;;;90.55;54.78;;;21.90;64.30;;;;;;4926562;28;89873;-40
2022/05/23 01:46:36;;;;;;;89.80;54.35;;;21.80;64.40;;;;;;4922037;28;90362;-40
2022/05/23 01:49:02;;;;;;;90.78;54.85;;;21.80;64.40;;;;;;4929747;28;90239;-40
2022/05/23 01:51:28;;;;;;;91.65;55.22;;;21.80;65.50;;;;;;4923728;28;89352;-37
2022/05/23 01:53:54;;;;;;;90.68;54.90;;;21.80;64.40;;;;;;4926303;28;89652;-39
2022/05/23 01:56:20;;;;;;;90.88;54.72;;;21.80;65.20;;;;;;4933607;28;89932;-39
2022/05/23 02:01:29;;;;;;;90.43;54.47;;;21.80;64.60;;;;;;4925128;28;90327;-40
2022/05/23 02:03:55;;;;;;;91.88;54.97;;;21.80;64.60;;;;;;4930575;28;89980;-38
2022/05/23 02:06:21;;;;;;;92.32;55.10;;;21.80;64.50;;;;;;4917682;28;90315;-38
2022/05/23 02:08:47;;;;;;;90.80;54.63;;;21.80;64.70;;;;;;4920930;28;90648;-41
2022/05/23 02:11:13;;;;;;;90.82;54.40;;;21.80;64.80;;;;;;4929007;28;89990;-37
2022/05/23 02:13:43;;;;;;;91.70;55.35;;;21.80;64.70;;;;;;4929793;28;89674;-37
2022/05/23 02:16:09;;;;;;;90.00;54.67;;;21.80;64.60;;;;;;4926008;28;91109;-37
2022/05/23 02:18:35;;;;;;;91.35;55.20;;;21.80;64.60;;;;;;4923717;28;89667;-38
2022/05/23 02:21:01;;;;;;;91.13;54.85;;;21.80;64.60;;;;;;4920022;28;90331;-37
2022/05/23 02:23:27;;;;;;;91.05;54.42;;;21.80;64.60;;;;;;4928140;28;92067;-36
2022/05/23 02:25:52;;;;;;;90.80;54.55;;;21.70;64.60;;;;;;4932310;28;89431;-38
2022/05/23 02:28:19;;;;;;;90.57;54.35;;;21.70;64.60;;;;;;4923038;28;90188;-38
2022/05/23 02:30:47;;;;;;;90.15;54.33;;;21.70;64.80;;;;;;4928903;28;90212;-37
2022/05/23 02:33:12;;;;;;;90.93;54.75;;;21.70;64.70;;;;;;4927904;28;90691;-39
2022/05/23 02:35:38;;;;;;;89.82;54.22;;;21.70;64.70;;;;;;4923274;28;90355;-38
2022/05/23 02:38:04;;;;;;;90.10;54.50;;;21.70;64.60;;;;;;4919257;28;92422;-38
2022/05/23 02:40:30;;;;;;;89.80;54.65;;;21.70;64.50;;;;;;4925905;28;90777;-39
2022/05/23 02:42:56;;;;;;;90.57;54.47;;;21.70;64.40;;;;;;4927758;28;90778;-36
2022/05/23 02:45:22;;;;;;;90.22;54.65;;;21.60;64.80;;;;;;4925649;28;89862;-41
2022/05/23 02:47:47;;;;;;;90.15;54.53;;;21.70;64.90;;;;;;4927569;28;91173;-36
2022/05/23 02:50:13;;;;;;;90.63;55.13;;;21.70;64.50;;;;;;4927428;28;91391;-37
2022/05/23 02:52:40;;;;;;;90.70;54.83;;;21.60;64.60;;;;;;4923818;28;90008;-37
2022/05/23 02:55:07;;;;;;;91.47;54.60;;;21.60;64.60;;;;;;4919642;28;90168;-36
2022/05/23 02:57:33;;;;;;;91.00;55.28;;;21.60;64.50;;;;;;4921700;28;91734;-36
2022/05/23 03:00:00;;;;;;;91.20;54.95;;;21.60;64.60;;;;;;4927424;28;89982;-38
2022/05/23 03:05:10;;;;;;;91.88;55.22;;;21.60;64.50;;;;;;4926087;28;89348;-36
2022/05/23 03:07:36;;;;;;;89.68;54.03;;;21.60;65.00;;;;;;4914921;28;96470;-38
2022/05/23 03:10:03;;;;;;;90.72;54.83;;;21.60;64.70;;;;;;4921978;28;91066;-38
2022/05/23 03:12:29;;;;;;;90.57;54.72;;;21.50;64.70;;;;;;4921531;28;93329;-40
2022/05/23 03:14:55;;;;;;;89.30;54.10;;;21.50;64.90;;;;;;4927675;28;90196;-36
2022/05/23 03:17:20;;;;;;;90.57;54.88;;;21.50;65.00;;;;;;4920192;28;94068;-39
2022/05/23 03:19:46;;;;;;;91.25;54.95;;;21.60;65.00;;;;;;4929902;28;90601;-38
2022/05/23 03:27:42;;;;;;;90.28;54.38;;;21.50;64.80;;;;;;4925256;28;90671;-36
2022/05/23 03:30:10;;;;;;;89.68;54.13;;;21.50;65.00;;;;;;4928862;28;89933;-36
2022/05/23 03:32:35;;;;;;;93.50;55.40;;;21.50;65.00;;;;;;4929426;28;90410;-37
2022/05/23 03:35:01;;;;;;;90.82;54.42;;;21.50;65.10;;;;;;4930999;28;90840;-37
2022/05/23 03:37:27;;;;;;;90.70;54.72;;;21.50;65.00;;;;;;4925757;28;92145;-38
2022/05/23 03:39:53;;;;;;;90.30;54.72;;;21.40;64.30;;;;;;4927404;28;92158;-36
2022/05/23 03:42:19;;;;;;;90.25;54.47;;;21.50;64.80;;;;;;4934662;28;89833;-39
2022/05/23 03:44:44;;;;;;;91.13;55.50;;;21.40;64.80;;;;;;4934303;28;90006;-36
2022/05/23 03:47:10;;;;;;;89.45;54.40;;;21.50;65.00;;;;;;4923376;28;90944;-37
2022/05/23 03:49:36;;;;;;;90.75;54.45;;;21.50;64.90;;;;;;4930463;28;90204;-37
2022/05/23 03:52:02;;;;;;;92.25;55.00;;;21.50;64.80;;;;;;4929167;28;89761;-37
2022/05/23 03:54:28;;;;;;;89.88;54.45;;;21.50;64.90;;;;;;4922587;28;90186;-37
2022/05/23 03:57:02;;;;;;;90.93;54.45;;;21.50;65.00;;;;;;4931848;28;89684;-37
2022/05/23 03:59:29;;;;;;;90.93;55.05;;;21.50;65.10;;;;;;4931164;28;90466;-37
2022/05/23 04:01:57;;;;;;;90.22;54.65;;;21.40;64.90;;;;;;4930139;28;90765;-37
2022/05/23 04:04:28;;;;;;;90.25;54.45;;;21.40;64.80;;;;;;4925916;28;90364;-39
2022/05/23 04:07:03;;;;;;;90.63;54.63;;;21.40;64.90;;;;;;4920892;28;91522;-37
2022/05/23 04:09:29;;;;;;;92.68;56.38;;;21.40;64.80;;;;;;4920784;28;90041;-35
2022/05/23 04:11:56;;;;;;;90.60;54.78;;;21.40;64.90;;;;;;4929404;28;90722;-38
2022/05/23 04:14:22;;;;;;;90.35;54.85;;;21.40;64.90;;;;;;4924697;28;90405;-37
2022/05/23 04:16:49;;;;;;;89.47;54.72;;;21.40;64.80;;;;;;4930405;28;90053;-37
2022/05/23 04:19:15;;;;;;;89.78;54.35;;;21.30;64.90;;;;;;4925636;28;93538;-36
2022/05/23 04:21:42;;;;;;;91.72;54.92;;;21.40;65.10;;;;;;4927576;28;89982;-38
2022/05/23 04:24:09;;;;;;;91.05;54.78;;;21.30;64.80;;;;;;4919178;28;91348;-37
2022/05/23 04:26:35;;;;;;;90.13;54.60;;;21.40;65.10;;;;;;4927158;28;90901;-39
2022/05/23 04:29:01;;;;;;;90.70;54.35;;;21.40;64.80;;;;;;4925698;28;90901;-41
2022/05/23 04:31:26;;;;;;;90.18;54.35;;;21.40;65.00;;;;;;4917299;28;89478;-37
2022/05/23 04:36:36;;;;;;;90.30;54.78;;;21.40;65.00;;;;;;4926337;28;91573;-39
2022/05/23 04:39:02;;;;;;;90.15;55.05;;;21.40;64.90;;;;;;4918774;28;90766;-38
2022/05/23 04:41:28;;;;;;;90.63;54.15;;;21.40;64.80;;;;;;4920987;28;90009;-37
2022/05/23 04:43:54;;;;;;;90.68;54.38;;;21.40;64.90;;;;;;4931036;28;89660;-37
2022/05/23 04:46:20;;;;;;;89.18;54.15;;;21.40;64.80;;;;;;4924620;28;90233;-38
2022/05/23 04:51:30;;;;;;;89.88;54.40;;;21.40;64.80;;;;;;4927736;28;92208;-36
2022/05/23 04:53:56;;;;;;;90.88;54.38;;;21.40;64.80;;;;;;4924738;28;90210;-38
2022/05/23 04:56:24;;;;;;;90.72;54.47;;;21.40;64.70;;;;;;4926323;28;90043;-39
2022/05/23 04:58:50;;;;;;;90.15;54.45;;;21.40;64.80;;;;;;4925422;28;90914;-36
2022/05/23 05:01:16;;;;;;;90.70;54.47;;;21.40;64.60;;;;;;4930424;28;89798;-37
2022/05/23 05:03:42;;;;;;;90.50;54.10;;;21.50;64.70;;;;;;4925461;28;90971;-37
2022/05/23 05:06:08;;;;;;;91.63;54.67;;;21.40;64.70;;;;;;4919057;28;92408;-40
2022/05/23 05:08:34;;;;;;;91.45;54.72;;;21.50;64.40;;;;;;4921957;28;91484;-36
2022/05/23 05:11:03;;;;;;;90.10;54.40;;;21.50;64.30;;;;;;4924050;28;89847;-41
2022/05/23 05:13:29;;;;;;;90.50;54.42;;;21.50;64.40;;;;;;4918147;28;90743;-38
2022/05/23 05:16:03;;;;;;;91.80;54.70;;;21.50;65.20;;;;;;4920239;28;91005;-38
2022/05/23 05:18:30;;;;;;;91.18;54.78;;;21.50;64.40;;;;;;4920376;28;90777;-38
2022/05/23 05:21:01;;;;;;;91.95;54.83;;;21.60;65.20;;;;;;4927111;28;91157;-38
2022/05/23 05:23:27;;;;;;;93.13;55.03;;;21.60;64.90;;;;;;4923300;28;90356;-37
2022/05/23 05:25:53;;;;;;;90.93;54.17;;;21.60;65.20;;;;;;4924789;28;90892;-38
2022/05/23 05:28:19;;;;;;;91.55;54.15;;;21.70;64.90;;;;;;4927289;28;89979;-37
2022/05/23 05:31:19;;;;;;;91.03;54.97;;;21.70;64.90;;;;;;4928239;28;89929;-39
2022/05/23 05:33:49;;;;;;;94.53;54.42;;;21.70;65.00;;;;;;4927782;28;89308;-37
2022/05/23 05:36:21;;;;;;;91.47;54.22;;;21.70;65.00;;;;;;4923065;28;90260;-38
2022/05/23 05:39:08;;;;;;;93.40;54.72;;;21.70;64.50;;;;;;4917049;28;89963;-36
2022/05/23 05:41:43;;;;;;;97.53;55.88;;;21.80;65.30;;;;;;4917316;28;90929;-37
2022/05/23 05:44:14;;;;;;;97.25;56.20;;;21.90;64.80;;;;;;4920603;28;90944;-39
2022/05/23 05:46:44;;;;;;;106.35;58.17;;;21.90;65.30;;;;;;4921883;28;90447;-38
2022/05/23 05:49:14;;;;;;;106.47;58.13;;;22.00;64.80;;;;;;4921666;28;90615;-38
2022/05/23 05:51:41;;;;;;;103.07;57.90;;;22.00;64.50;;;;;;4933511;28;90132;-43
2022/05/23 05:54:11;;;;;;;103.93;57.65;;;22.10;64.10;;;;;;4926041;28;91179;-37
2022/05/23 05:56:38;;;;;;;110.05;58.13;;;22.20;63.70;;;;;;4924122;28;90861;-38
2022/05/23 05:59:04;;;;;;;107.05;58.10;;;22.30;63.20;;;;;;4920044;28;90464;-41
2022/05/23 06:01:29;;;;;;;107.47;58.20;;;22.40;62.90;;;;;;4916143;28;89970;-37
2022/05/23 06:03:55;;;;;;;100.40;57.85;;;22.40;62.50;;;;;;4946908;28;88305;-38
2022/05/23 06:11:49;;;;;;;100.10;57.13;;;22.60;61.50;;;;;;4928378;28;90160;-38
2022/05/23 06:14:14;;;;;;;103.85;57.78;;;22.60;61.00;;;;;;4925981;28;90720;-38
2022/05/23 06:16:40;;;;;;;100.32;57.33;;;22.60;61.00;;;;;;4920566;28;90074;-38
2022/05/23 06:19:07;;;;;;;101.35;56.78;;;22.60;61.00;;;;;;4920766;28;89777;-39
2022/05/23 06:21:32;;;;;;;97.93;56.55;;;22.60;61.00;;;;;;4927218;28;89633;-40
2022/05/23 06:23:58;;;;;;;104.22;56.80;;;22.70;61.00;;;;;;4927677;28;90021;-42
2022/05/23 06:26:26;;;;;;;97.68;56.33;;;22.70;61.00;;;;;;4927514;28;91351;-41
2022/05/23 06:28:52;;;;;;;98.78;56.60;;;22.80;61.00;;;;;;4928553;28;90113;-38
2022/05/23 06:31:18;;;;;;;98.20;56.45;;;22.80;60.80;;;;;;4921860;28;91018;-39
2022/05/23 06:33:45;;;;;;;95.75;56.63;;;22.80;60.90;;;;;;4933531;28;89989;-39
2022/05/23 06:36:12;;;;;;;97.90;56.45;;;22.90;60.90;;;;;;4928221;28;90291;-39
2022/05/23 06:38:39;;;;;;;97.88;56.53;;;22.90;60.80;;;;;;4929657;28;91142;-38
2022/05/23 06:41:06;;;;;;;99.45;56.50;;;23.00;60.60;;;;;;4927473;28;89943;-41
2022/05/23 06:43:36;;;;;;;96.63;56.40;;;23.10;60.30;;;;;;4944271;28;89906;-39
2022/05/23 06:46:02;;;;;;;99.50;56.83;;;23.20;59.80;;;;;;4934108;28;90062;-38
2022/05/23 06:48:28;;;;;;;98.93;56.72;;;23.40;59.20;;;;;;4928818;28;90818;-43
2022/05/23 06:50:54;;;;;;;102.13;56.92;;;23.60;58.60;;;;;;4925511;28;89694;-41
2022/05/23 06:53:22;;;;;;;102.28;56.40;;;23.70;58.30;;;;;;4927419;28;90376;-41
2022/05/23 06:55:49;;;;;;;102.78;57.13;;;23.80;58.00;;;;;;4930521;28;90597;-40
2022/05/23 06:58:15;;;;;;;98.32;56.58;;;23.90;57.80;;;;;;4935242;28;91351;-38
2022/05/23 07:00:42;;;;;;;97.95;56.90;;;24.00;57.60;;;;;;4932976;28;90273;-39
2022/05/23 07:03:08;;;;;;;95.93;56.40;;;24.00;57.40;;;;;;4931496;28;90995;-41
2022/05/23 07:13:50;;;;;;;98.15;56.88;;;24.20;57.10;;;;;;4934730;28;89231;-38
2022/05/23 07:16:17;;;;;;;96.22;56.95;;;24.20;56.90;;;;;;4944960;28;90543;-39
2022/05/23 07:18:44;;;;;;;97.32;56.47;;;24.20;56.80;;;;;;4924952;28;97032;-41
2022/05/23 07:21:10;;;;;;;100.18;56.83;;;24.30;56.80;;;;;;4943468;28;90387;-42
2022/05/23 07:23:37;;;;;;;98.47;57.13;;;24.30;56.50;;;;;;4930528;28;90001;-39
2022/05/23 07:26:05;;;;;;;98.10;56.72;;;24.40;56.30;;;;;;4935947;28;90867;-43
2022/05/23 07:28:31;;;;;;;96.35;56.70;;;24.50;56.20;;;;;;4932307;28;90145;-38
2022/05/23 07:30:58;;;;;;;98.38;56.70;;;24.60;55.70;;;;;;4927587;28;89948;-38
2022/05/23 07:33:23;;;;;;;97.72;56.75;;;24.60;55.50;;;;;;4927122;28;93958;-38
2022/05/23 07:35:57;;;;;;;97.15;56.55;;;24.70;55.40;;;;;;4936944;28;90328;-38
2022/05/23 07:38:22;;;;;;;96.10;56.83;;;24.70;55.30;;;;;;4927496;28;89091;-39
2022/05/23 07:40:52;;;;;;;101.65;56.80;;;24.80;55.20;;;;;;4926804;28;90430;-41
2022/05/23 07:43:19;;;;;;;96.22;56.53;;;24.80;55.00;;;;;;4932779;28;90069;-38
2022/05/23 07:45:45;;;;;;;101.47;57.03;;;25.00;54.70;;;;;;4930880;28;94219;-40
2022/05/23 07:48:11;;;;;;;101.90;57.58;;;25.00;54.80;;;;;;4928482;28;95094;-42
2022/05/23 07:50:37;;;;;;;102.47;57.60;;;25.00;54.80;;;;;;4934024;28;91282;-39
2022/05/23 08:01:16;;;;;;;106.40;58.78;;;25.20;54.00;;;;;;4952448;28;76293;-37
2022/05/23 08:03:43;;;;;;;108.38;58.60;;;25.30;54.00;;;;;;4945527;28;89438;-40
2022/05/23 08:06:09;;;;;;;109.28;57.97;;;25.30;54.00;;;;;;4933294;28;90189;-38
2022/05/23 08:08:35;;;;;;;105.60;58.42;;;25.30;53.50;;;;;;4930051;28;90323;-38
2022/05/23 08:11:08;;;;;;;103.28;58.22;;;25.30;53.50;;;;;;4925281;28;91136;-42
2022/05/23 08:13:39;;;;;;;102.85;58.53;;;25.40;53.50;;;;;;4933427;28;90333;-39
2022/05/23 08:16:05;;;;;;;100.47;58.13;;;25.40;53.10;;;;;;4928771;28;91356;-38
2022/05/23 08:18:31;;;;;;;101.57;58.05;;;25.40;52.90;;;;;;4937294;28;90190;-39
2022/05/23 08:20:57;;;;;;;106.93;58.45;;;25.40;53.20;;;;;;4931504;28;90069;-41
2022/05/23 08:23:23;;;;;;;101.70;57.78;;;25.40;52.00;;;;;;4926447;28;90000;-40
2022/05/23 08:25:49;;;;;;;104.63;57.97;;;25.30;52.70;;;;;;4936375;28;90230;-40
2022/05/23 08:28:14;;;;;;;101.28;57.20;;;25.30;52.70;;;;;;4927019;28;91029;-39
2022/05/23 08:30:40;;;;;;;105.00;57.60;;;25.20;52.80;;;;;;4934756;28;89527;-38
2022/05/23 08:33:06;;;;;;;100.65;57.60;;;25.20;52.60;;;;;;4930932;28;90024;-37
2022/05/23 08:35:32;;;;;;;103.03;57.55;;;25.10;52.30;;;;;;4925092;28;91107;-37
2022/05/23 08:37:58;;;;;;;101.70;57.40;;;25.20;52.50;;;;;;4924172;28;90560;-38
2022/05/23 08:40:38;;;;;;;100.05;57.38;;;25.20;52.70;;;;;;4923500;28;90740;-38
2022/05/23 08:43:05;;;;;;;103.45;57.40;;;25.20;52.70;;;;;;4927525;28;91921;-38
2022/05/23 08:45:39;;;;;;;102.82;57.53;;;25.20;52.50;;;;;;4926437;28;90220;-38
2022/05/23 08:48:15;;;;;;;101.63;57.38;;;25.20;52.60;;;;;;4932395;28;90855;-40
2022/05/23 08:50:52;;;;;;;102.68;57.60;;;25.30;52.10;;;;;;4936120;28;92378;-37
2022/05/23 08:53:42;;;;;;;100.50;57.45;;;25.30;51.90;;;;;;4936247;28;90139;-36
2022/05/23 08:56:19;;;;;;;100.57;56.90;;;25.30;52.20;;;;;;4934550;28;90187;-38
2022/05/23 08:59:11;;;;;;;104.10;57.22;;;25.20;52.10;;;;;;4934262;28;91939;-38
2022/05/23 09:01:44;;;;;;;104.63;57.53;;;25.20;52.00;;;;;;4931325;28;93845;-37
2022/05/23 09:04:23;;;;;;;101.75;57.10;;;25.20;52.30;;;;;;4933970;28;89557;-39
2022/05/23 09:06:50;;;;;;;100.85;56.88;;;25.20;52.40;;;;;;4931074;28;89616;-39
2022/05/23 09:09:22;;;;;;;103.13;57.47;;;25.20;52.30;;;;;;4922818;28;90013;-38
2022/05/23 09:11:55;;;;;;;101.63;57.22;;;25.20;52.20;;;;;;4922942;28;89418;-38
2022/05/23 09:14:21;;;;;;;100.55;57.13;;;25.20;52.30;;;;;;4938602;28;90022;-39
2022/05/23 09:16:50;;;;;;;104.28;57.22;;;25.20;52.40;;;;;;4934968;28;89916;-38
2022/05/23 09:19:43;;;;;;;105.57;57.35;;;25.20;53.00;;;;;;4932720;28;89067;-38
2022/05/23 09:22:13;;;;;;;100.57;57.15;;;25.30;52.80;;;;;;4931254;28;90243;-38
2022/05/23 09:24:45;;;;;;;103.50;57.42;;;25.30;52.70;;;;;;4941635;28;78766;-39
2022/05/23 09:27:19;;;;;;;104.38;57.70;;;25.20;52.90;;;;;;4935497;28;80173;-38
2022/05/23 09:29:50;;;;;;;101.47;57.63;;;25.20;53.20;;;;;;4924428;28;90782;-44
2022/05/23 09:32:17;;;;;;;102.53;57.55;;;25.20;53.00;;;;;;4936710;28;89644;-37
2022/05/23 09:34:50;;;;;;;99.35;57.20;;;25.10;53.20;;;;;;4927843;28;91268;-38
2022/05/23 09:37:28;;;;;;;100.55;57.65;;;25.10;53.20;;;;;;4937089;28;91211;-38
2022/05/23 09:39:58;;;;;;;100.05;57.15;;;25.00;53.40;;;;;;4943194;28;78770;-40
2022/05/23 09:48:14;;;;;;;102.07;57.58;;;25.00;53.10;;;;;;4941363;28;91098;-37
2022/05/23 09:50:52;;;;;;;100.30;57.38;;;25.10;53.40;;;;;;4933136;28;80103;-38
2022/05/23 09:53:24;;;;;;;101.90;57.38;;;25.20;53.00;;;;;;4936140;28;85646;-37
2022/05/23 09:55:50;;;;;;;98.88;57.30;;;25.20;52.70;;;;;;4924043;28;90792;-39
2022/05/23 09:58:34;;;;;;;101.72;57.38;;;25.10;53.00;;;;;;4937033;28;89800;-38
2022/05/23 10:01:07;;;;;;;100.90;57.58;;;25.10;53.00;;;;;;4929754;28;90359;-41
2022/05/23 10:03:34;;;;;;;99.07;57.42;;;25.00;53.10;;;;;;4915778;28;95065;-37
2022/05/23 10:06:10;;;;;;;101.05;57.45;;;25.00;54.20;;;;;;4918738;28;91322;-41
2022/05/23 10:08:45;;;;;;;102.20;57.42;;;25.10;54.30;;;;;;4916685;28;91490;-37
2022/05/23 10:11:24;;;;;;;101.30;57.28;;;25.00;54.30;;;;;;4921476;28;89932;-37
2022/05/23 10:13:56;;;;;;;100.47;57.05;;;25.00;54.80;;;;;;4921631;28;90140;-38
2022/05/23 10:16:29;;;;;;;102.22;57.33;;;25.00;54.90;;;;;;4920104;28;96557;-40
2022/05/23 10:19:08;;;;;;;101.47;56.95;;;25.00;54.80;;;;;;4915421;28;92157;-38
2022/05/23 10:21:37;;;;;;;96.80;56.22;;;24.90;54.90;;;;;;4913956;28;91282;-40
2022/05/23 10:24:05;;;;;;;97.90;56.65;;;24.90;55.00;;;;;;4927887;28;91259;-37
2022/05/23 10:26:35;;;;;;;98.63;56.55;;;24.90;55.40;;;;;;4925183;28;95464;-38
2022/05/23 10:29:23;;;;;;;102.68;56.03;;;24.80;55.50;;;;;;4918975;28;90892;-38
2022/05/23 10:32:02;;;;;;;105.43;56.72;;;24.80;55.60;;;;;;4923238;28;89955;-37
2022/05/23 10:34:54;;;;;;;98.10;56.40;;;24.70;55.70;;;;;;4919923;28;92270;-36
2022/05/23 10:37:25;;;;;;;98.70;56.88;;;24.70;55.80;;;;;;4924992;28;95702;-41
2022/05/23 10:42:52;;;;;;;100.72;56.92;;;24.60;56.00;;;;;;4926119;28;90895;-37
2022/05/23 10:45:39;;;;;;;102.50;57.10;;;24.60;56.00;;;;;;4929282;28;92860;-39
2022/05/23 10:48:30;;;;;;;99.70;57.38;;;24.60;56.20;;;;;;4927851;28;90110;-41
2022/05/23 10:51:08;;;;;;;100.67;56.50;;;24.50;56.40;;;;;;4926792;28;91052;-38
2022/05/23 10:53:49;;;;;;;98.15;56.78;;;24.40;56.60;;;;;;4912242;28;93055;-38
2022/05/23 10:56:26;;;;;;;98.95;56.45;;;24.40;56.50;;;;;;4921038;28;89942;-40
2022/05/23 10:59:20;;;;;;;99.03;56.50;;;24.50;56.60;;;;;;4921830;28;91085;-43
2022/05/23 11:02:10;;;;;;;103.00;56.55;;;24.50;57.10;;;;;;4929355;28;91449;-43
2022/05/23 11:04:51;;;;;;;100.00;56.22;;;24.50;57.10;;;;;;4917402;28;91296;-39
2022/05/23 11:07:46;;;;;;;97.47;56.25;;;24.50;57.00;;;;;;4925551;28;90803;-37
2022/05/23 11:10:36;;;;;;;100.47;56.13;;;24.50;57.10;;;;;;4913664;28;90886;-37
2022/05/23 11:13:20;;;;;;;99.80;56.03;;;24.50;57.00;;;;;;4922865;28;92531;-38
2022/05/23 11:15:57;;;;;;;95.75;55.63;;;24.50;56.70;;;;;;4913628;28;96795;-40
2022/05/23 11:19:04;;;;;;;95.72;56.22;;;24.40;57.00;;;;;;4916775;28;92161;-39
2022/05/23 11:21:44;;;;;;;99.50;56.25;;;24.40;57.20;;;;;;4924162;28;91327;-42
2022/05/23 11:24:20;;;;;;;97.75;56.33;;;24.40;57.20;;;;;;4919837;28;91039;-40
2022/05/23 11:35:41;;;;;;;100.55;56.60;;;24.60;56.60;;;;;;4916656;28;91261;-39
2022/05/23 11:38:08;;;;;;;99.18;56.33;;;24.70;56.50;;;;;;4920543;28;91728;-40
2022/05/23 11:40:40;;;;;;;99.72;56.55;;;24.70;56.20;;;;;;4920123;28;93080;-40
2022/05/23 11:43:06;;;;;;;98.88;56.25;;;24.70;56.30;;;;;;4924565;28;90429;-38
2022/05/23 11:48:40;;;;;;;97.25;56.05;;;24.70;56.50;;;;;;4924743;28;90243;-37
2022/05/23 11:51:15;;;;;;;95.82;55.78;;;24.70;56.40;;;;;;4930092;28;92409;-38
2022/05/23 11:53:46;;;;;;;100.47;56.15;;;24.70;56.60;;;;;;4922942;28;90017;-39
2022/05/23 11:56:44;;;;;;;114.30;56.35;;;24.50;56.60;;;;;;4933130;28;89913;-41
2022/05/23 11:59:30;;;;;;;98.75;55.90;;;24.50;56.70;;;;;;4929025;28;90250;-38
2022/05/23 12:02:11;;;;;;;101.50;56.08;;;24.60;56.90;;;;;;4922830;28;90283;-42
2022/05/23 12:04:48;;;;;;;97.78;56.05;;;24.60;56.80;;;;;;4925517;28;90809;-39
2022/05/23 12:07:42;;;;;;;97.93;56.30;;;24.60;56.60;;;;;;4921027;28;91032;-40
2022/05/23 12:10:22;;;;;;;98.75;57.13;;;24.50;56.50;;;;;;4923960;28;93210;-40
2022/05/23 12:12:51;;;;;;;100.32;57.05;;;24.50;56.50;;;;;;4922201;28;89561;-40
2022/05/23 12:15:44;;;;;;;102.70;57.72;;;24.50;56.70;;;;;;4929249;28;89780;-40
2022/05/23 12:18:22;;;;;;;98.75;56.85;;;24.40;56.90;;;;;;4918237;28;90262;-41
2022/05/23 12:20:51;;;;;;;100.50;56.97;;;24.40;57.10;;;;;;4922451;28;90521;-40
2022/05/23 12:23:39;;;;;;;103.72;58.35;;;24.30;57.20;;;;;;4925789;28;92534;-40
2022/05/23 12:26:23;;;;;;;100.70;57.45;;;24.30;57.00;;;;;;4929183;28;89561;-40
2022/05/23 12:28:55;;;;;;;100.82;59.47;;;24.30;57.10;;;;;;4931402;28;90480;-39
2022/05/23 12:31:28;;;;;;;105.75;58.95;;;24.20;57.10;;;;;;4918573;28;90121;-39
2022/05/23 12:34:01;;;;;;;99.22;58.70;;;24.20;57.30;;;;;;4921207;28;94626;-42
2022/05/23 12:36:29;;;;;;;100.35;59.05;;;24.20;57.40;;;;;;4926615;28;91363;-40
2022/05/23 12:39:13;;;;;;;104.70;57.92;;;24.20;57.50;;;;;;4932054;28;90724;-42
2022/05/23 12:41:58;;;;;;;98.90;57.72;;;24.10;57.40;;;;;;4920025;28;90117;-44
2022/05/23 12:44:51;;;;;;;100.57;57.92;;;24.10;57.60;;;;;;4921536;28;89514;-41
2022/05/23 12:47:29;;;;;;;106.75;57.75;;;24.10;58.10;;;;;;4918083;28;91540;-41
2022/05/23 12:50:07;;;;;;;102.80;59.20;;;24.10;58.50;;;;;;4930690;28;90070;-39
2022/05/23 12:52:48;;;;;;;102.10;59.20;;;24.10;57.60;;;;;;4924162;28;90022;-42
2022/05/23 12:55:26;;;;;;;99.43;58.33;;;24.10;57.70;;;;;;4927904;28;90335;-38
2022/05/23 12:58:03;;;;;;;100.70;58.45;;;24.00;57.50;;;;;;4926514;28;90034;-39
2022/05/23 13:00:34;;;;;;;100.65;57.95;;;24.00;57.80;;;;;;4929800;28;91359;-39
2022/05/23 13:03:02;;;;;;;98.80;57.95;;;24.10;57.80;;;;;;4923135;28;91427;-40
2022/05/23 13:05:35;;;;;;;99.07;57.53;;;24.10;57.70;;;;;;4921543;28;90598;-40
2022/05/23 13:08:06;;;;;;;99.05;57.60;;;24.10;57.60;;;;;;4918548;28;90579;-40
2022/05/23 13:10:37;;;;;;;99.22;57.42;;;24.00;57.70;;;;;;4912308;28;91948;-38
2022/05/23 13:13:12;;;;;;;99.88;56.67;;;24.00;57.70;;;;;;4918863;28;91146;-40
2022/05/23 13:15:38;;;;;;;97.93;56.95;;;24.00;57.90;;;;;;4922389;28;89933;-41
2022/05/23 13:23:38;;;;;;;100.13;57.35;;;24.00;58.10;;;;;;4929218;28;90777;-41
2022/05/23 13:26:09;;;;;;;99.50;57.45;;;23.90;58.40;;;;;;4922723;28;91035;-39
2022/05/23 13:28:43;;;;;;;99.25;57.13;;;23.90;57.90;;;;;;4919863;28;91079;-39
2022/05/23 13:31:24;;;;;;;100.22;57.58;;;23.90;58.40;;;;;;4917597;28;90810;-43
2022/05/23 13:33:50;;;;;;;98.47;57.33;;;23.90;58.00;;;;;;4918350;28;94712;-41
2022/05/23 13:36:16;;;;;;;99.60;57.20;;;23.90;58.70;;;;;;4921864;28;90152;-43
2022/05/23 13:38:57;;;;;;;101.38;57.05;;;23.90;58.20;;;;;;4926869;28;95922;-41
2022/05/23 13:41:28;;;;;;;101.55;57.28;;;23.90;58.60;;;;;;4919334;28;91408;-39
2022/05/23 13:43:54;;;;;;;;;;;23.80;58.50;;;;;;4929643;28;90073;-41
2022/05/23 13:46:37;;;;;;;98.35;56.95;;;23.80;58.60;;;;;;4922090;28;90116;-40
2022/05/23 13:49:23;;;;;;;101.43;56.92;;;23.90;58.60;;;;;;4933500;28;90128;-41
2022/05/23 13:51:52;;;;;;;99.88;56.47;;;23.80;58.40;;;;;;4924528;28;92766;-43